Itapuca, Brazil
Current Conditions -  °F | °C
As of 3:00 PM on Thursday 30 Oct 2014 (Local Time) from SBPF Reporting Station
Light Rain Light Rain  
Wind Chill: 63°   Ceiling: 700
Heat Index: 63°   Visibility: 6mi
Dew Point: 59°   Wind: 23mph
Humidity: 88%   Direction: 230°SW
Pressure: 29.91"   Gusts: NA
Location:  28.78°S, 52.17°W
Report Text: SBPF 301700Z 23020KT 9999 -RA SCT002 BKN007 OVC010 17/15 Q1013
Loading
Personal Weather Stations






























Interactive Weather Map
Tropical Storm Tracking
New forecast layout! Learn more

10-Day Weather Forecast

Advertisements
Track Severe Weather on mobile